sensor_id;sensor_type;location;lat;lon;timestamp;P1;durP1;ratioP1;P2;durP2;ratioP2
39256;SDS011;24958;48.066;11.038;2022-12-24T00:00:16;0.90;;;0.90;;
39256;SDS011;24958;48.066;11.038;2022-12-24T00:02:43;1.20;;;1.00;;
39256;SDS011;24958;48.066;11.038;2022-12-24T00:05:13;1.00;;;1.00;;
39256;SDS011;24958;48.066;11.038;2022-12-24T00:07:39;0.70;;;0.70;;
39256;SDS011;24958;48.066;11.038;2022-12-24T00:10:06;1.02;;;0.85;;
39256;SDS011;24958;48.066;11.038;2022-12-24T00:12:32;0.88;;;0.88;;
39256;SDS011;24958;48.066;11.038;2022-12-24T00:14:58;0.65;;;0.65;;
39256;SDS011;24958;48.066;11.038;2022-12-24T00:17:24;1.10;;;0.90;;
39256;SDS011;24958;48.066;11.038;2022-12-24T00:19:51;0.98;;;0.98;;
39256;SDS011;24958;48.066;11.038;2022-12-24T00:22:18;1.05;;;0.95;;
39256;SDS011;24958;48.066;11.038;2022-12-24T00:24:44;1.05;;;0.95;;
39256;SDS011;24958;48.066;11.038;2022-12-24T00:27:13;1.05;;;0.93;;
39256;SDS011;24958;48.066;11.038;2022-12-24T00:29:58;1.08;;;0.98;;
39256;SDS011;24958;48.066;11.038;2022-12-24T00:32:25;0.90;;;0.90;;
39256;SDS011;24958;48.066;11.038;2022-12-24T00:34:51;1.20;;;1.10;;
39256;SDS011;24958;48.066;11.038;2022-12-24T00:37:17;0.87;;;0.87;;
39256;SDS011;24958;48.066;11.038;2022-12-24T00:39:44;0.93;;;0.80;;
39256;SDS011;24958;48.066;11.038;2022-12-24T00:42:10;0.77;;;0.77;;
39256;SDS011;24958;48.066;11.038;2022-12-24T00:44:37;0.90;;;0.90;;
39256;SDS011;24958;48.066;11.038;2022-12-24T00:47:03;1.20;;;0.90;;
39256;SDS011;24958;48.066;11.038;2022-12-24T00:53:12;1.83;;;1.07;;
39256;SDS011;24958;48.066;11.038;2022-12-24T00:56:03;2.17;;;0.90;;
39256;SDS011;24958;48.066;11.038;2022-12-24T00:58:31;1.23;;;1.13;;
39256;SDS011;24958;48.066;11.038;2022-12-24T01:01:22;0.90;;;0.90;;
39256;SDS011;24958;48.066;11.038;2022-12-24T01:03:59;1.00;;;1.00;;
39256;SDS011;24958;48.066;11.038;2022-12-24T01:06:44;0.95;;;0.80;;
39256;SDS011;24958;48.066;11.038;2022-12-24T01:09:10;3.10;;;1.10;;
39256;SDS011;24958;48.066;11.038;2022-12-24T01:11:37;2.38;;;1.10;;
39256;SDS011;24958;48.066;11.038;2022-12-24T01:14:03;1.07;;;0.90;;
39256;SDS011;24958;48.066;11.038;2022-12-24T01:22:36;1.23;;;1.13;;
39256;SDS011;24958;48.066;11.038;2022-12-24T01:25:03;1.30;;;1.10;;
39256;SDS011;24958;48.066;11.038;2022-12-24T01:27:29;1.37;;;1.00;;
39256;SDS011;24958;48.066;11.038;2022-12-24T01:29:56;1.97;;;1.10;;
39256;SDS011;24958;48.066;11.038;2022-12-24T01:32:23;2.33;;;1.13;;
39256;SDS011;24958;48.066;11.038;2022-12-24T01:34:49;1.20;;;1.10;;
39256;SDS011;24958;48.066;11.038;2022-12-24T01:37:15;1.10;;;0.90;;
39256;SDS011;24958;48.066;11.038;2022-12-24T01:39:41;3.17;;;1.23;;
39256;SDS011;24958;48.066;11.038;2022-12-24T01:42:14;0.80;;;0.70;;
39256;SDS011;24958;48.066;11.038;2022-12-24T01:45:21;0.93;;;0.90;;
39256;SDS011;24958;48.066;11.038;2022-12-24T01:47:46;1.60;;;1.13;;
39256;SDS011;24958;48.066;11.038;2022-12-24T01:50:13;1.20;;;1.10;;
39256;SDS011;24958;48.066;11.038;2022-12-24T01:52:40;1.30;;;1.20;;
39256;SDS011;24958;48.066;11.038;2022-12-24T01:55:09;1.40;;;1.20;;
39256;SDS011;24958;48.066;11.038;2022-12-24T01:57:44;0.98;;;0.80;;
39256;SDS011;24958;48.066;11.038;2022-12-24T02:00:13;1.20;;;1.10;;
39256;SDS011;24958;48.066;11.038;2022-12-24T02:02:41;1.10;;;1.00;;
39256;SDS011;24958;48.066;11.038;2022-12-24T02:05:10;1.63;;;1.20;;
39256;SDS011;24958;48.066;11.038;2022-12-24T02:07:37;1.53;;;1.20;;
39256;SDS011;24958;48.066;11.038;2022-12-24T02:10:04;2.37;;;1.00;;
39256;SDS011;24958;48.066;11.038;2022-12-24T02:12:31;1.67;;;1.57;;
39256;SDS011;24958;48.066;11.038;2022-12-24T02:14:58;1.30;;;0.93;;
39256;SDS011;24958;48.066;11.038;2022-12-24T02:17:37;1.23;;;1.07;;
39256;SDS011;24958;48.066;11.038;2022-12-24T02:25:22;1.20;;;1.10;;
39256;SDS011;24958;48.066;11.038;2022-12-24T02:30:20;1.10;;;1.00;;
39256;SDS011;24958;48.066;11.038;2022-12-24T02:32:52;2.30;;;1.30;;
39256;SDS011;24958;48.066;11.038;2022-12-24T02:35:29;3.07;;;1.33;;
39256;SDS011;24958;48.066;11.038;2022-12-24T02:40:28;1.27;;;1.07;;
39256;SDS011;24958;48.066;11.038;2022-12-24T02:42:57;1.27;;;1.10;;
39256;SDS011;24958;48.066;11.038;2022-12-24T02:45:29;1.53;;;1.07;;
39256;SDS011;24958;48.066;11.038;2022-12-24T02:47:56;2.20;;;1.13;;
39256;SDS011;24958;48.066;11.038;2022-12-24T02:50:22;1.33;;;1.20;;
39256;SDS011;24958;48.066;11.038;2022-12-24T02:52:49;1.27;;;1.10;;
39256;SDS011;24958;48.066;11.038;2022-12-24T02:57:58;1.50;;;1.20;;
39256;SDS011;24958;48.066;11.038;2022-12-24T03:00:26;1.97;;;1.20;;
39256;SDS011;24958;48.066;11.038;2022-12-24T03:03:06;2.80;;;1.20;;
39256;SDS011;24958;48.066;11.038;2022-12-24T03:05:46;1.00;;;0.90;;
39256;SDS011;24958;48.066;11.038;2022-12-24T03:13:14;1.27;;;1.10;;
39256;SDS011;24958;48.066;11.038;2022-12-24T03:15:41;2.00;;;1.27;;
39256;SDS011;24958;48.066;11.038;2022-12-24T03:18:08;1.27;;;1.00;;
39256;SDS011;24958;48.066;11.038;2022-12-24T03:20:43;3.33;;;1.10;;
39256;SDS011;24958;48.066;11.038;2022-12-24T03:23:10;1.43;;;1.00;;
39256;SDS011;24958;48.066;11.038;2022-12-24T03:25:37;1.33;;;1.07;;
39256;SDS011;24958;48.066;11.038;2022-12-24T03:28:04;2.80;;;1.20;;
39256;SDS011;24958;48.066;11.038;2022-12-24T03:30:31;1.30;;;1.10;;
39256;SDS011;24958;48.066;11.038;2022-12-24T03:32:57;1.00;;;0.90;;
39256;SDS011;24958;48.066;11.038;2022-12-24T03:35:23;1.20;;;1.10;;
39256;SDS011;24958;48.066;11.038;2022-12-24T03:37:50;1.53;;;1.10;;
39256;SDS011;24958;48.066;11.038;2022-12-24T03:40:16;1.70;;;1.00;;
39256;SDS011;24958;48.066;11.038;2022-12-24T03:42:42;1.07;;;0.90;;
39256;SDS011;24958;48.066;11.038;2022-12-24T03:45:08;1.20;;;1.00;;
39256;SDS011;24958;48.066;11.038;2022-12-24T03:47:35;1.13;;;1.00;;
39256;SDS011;24958;48.066;11.038;2022-12-24T03:50:01;1.00;;;0.90;;
39256;SDS011;24958;48.066;11.038;2022-12-24T03:52:27;0.90;;;0.90;;
39256;SDS011;24958;48.066;11.038;2022-12-24T03:54:53;1.70;;;0.90;;
39256;SDS011;24958;48.066;11.038;2022-12-24T03:57:19;1.40;;;1.20;;
39256;SDS011;24958;48.066;11.038;2022-12-24T03:59:45;1.23;;;1.00;;
39256;SDS011;24958;48.066;11.038;2022-12-24T04:02:12;1.20;;;1.00;;
39256;SDS011;24958;48.066;11.038;2022-12-24T04:04:38;2.00;;;1.10;;
39256;SDS011;24958;48.066;11.038;2022-12-24T04:07:04;2.20;;;1.20;;
39256;SDS011;24958;48.066;11.038;2022-12-24T04:09:31;1.60;;;1.20;;
39256;SDS011;24958;48.066;11.038;2022-12-24T04:11:57;2.20;;;1.10;;
39256;SDS011;24958;48.066;11.038;2022-12-24T04:14:23;1.30;;;1.00;;
39256;SDS011;24958;48.066;11.038;2022-12-24T04:16:49;2.20;;;1.20;;
39256;SDS011;24958;48.066;11.038;2022-12-24T04:19:17;1.07;;;0.93;;
39256;SDS011;24958;48.066;11.038;2022-12-24T04:21:43;2.00;;;1.10;;
39256;SDS011;24958;48.066;11.038;2022-12-24T04:24:09;1.33;;;0.80;;
39256;SDS011;24958;48.066;11.038;2022-12-24T04:26:35;1.47;;;1.20;;
39256;SDS011;24958;48.066;11.038;2022-12-24T04:29:01;1.23;;;1.13;;
39256;SDS011;24958;48.066;11.038;2022-12-24T04:31:27;1.37;;;1.00;;
39256;SDS011;24958;48.066;11.038;2022-12-24T04:33:54;1.30;;;1.20;;
39256;SDS011;24958;48.066;11.038;2022-12-24T04:36:20;1.27;;;1.00;;
39256;SDS011;24958;48.066;11.038;2022-12-24T04:38:46;1.63;;;0.90;;
39256;SDS011;24958;48.066;11.038;2022-12-24T04:41:19;1.53;;;1.07;;
39256;SDS011;24958;48.066;11.038;2022-12-24T04:43:46;1.63;;;1.03;;
39256;SDS011;24958;48.066;11.038;2022-12-24T04:46:13;1.53;;;0.97;;
39256;SDS011;24958;48.066;11.038;2022-12-24T04:48:40;1.20;;;1.10;;
39256;SDS011;24958;48.066;11.038;2022-12-24T04:51:06;0.93;;;0.90;;
39256;SDS011;24958;48.066;11.038;2022-12-24T04:53:33;1.17;;;1.10;;
39256;SDS011;24958;48.066;11.038;2022-12-24T04:55:59;1.10;;;1.00;;
39256;SDS011;24958;48.066;11.038;2022-12-24T04:58:26;1.20;;;1.00;;
39256;SDS011;24958;48.066;11.038;2022-12-24T05:00:52;1.60;;;1.00;;
39256;SDS011;24958;48.066;11.038;2022-12-24T05:03:18;1.30;;;1.10;;
39256;SDS011;24958;48.066;11.038;2022-12-24T05:05:45;2.23;;;1.27;;
39256;SDS011;24958;48.066;11.038;2022-12-24T05:08:11;1.43;;;1.00;;
39256;SDS011;24958;48.066;11.038;2022-12-24T05:10:37;1.50;;;1.10;;
39256;SDS011;24958;48.066;11.038;2022-12-24T05:13:04;1.87;;;0.90;;
39256;SDS011;24958;48.066;11.038;2022-12-24T05:15:30;0.90;;;0.90;;
39256;SDS011;24958;48.066;11.038;2022-12-24T05:17:56;2.90;;;1.10;;
39256;SDS011;24958;48.066;11.038;2022-12-24T05:20:22;2.30;;;0.93;;
39256;SDS011;24958;48.066;11.038;2022-12-24T05:22:48;2.57;;;1.10;;
39256;SDS011;24958;48.066;11.038;2022-12-24T05:25:35;2.50;;;1.27;;
39256;SDS011;24958;48.066;11.038;2022-12-24T05:28:21;1.53;;;1.00;;
39256;SDS011;24958;48.066;11.038;2022-12-24T05:30:48;1.63;;;0.97;;
39256;SDS011;24958;48.066;11.038;2022-12-24T05:33:14;1.93;;;1.30;;
39256;SDS011;24958;48.066;11.038;2022-12-24T05:35:40;1.23;;;1.10;;
39256;SDS011;24958;48.066;11.038;2022-12-24T05:38:07;1.87;;;1.17;;
39256;SDS011;24958;48.066;11.038;2022-12-24T05:40:33;1.93;;;1.43;;
39256;SDS011;24958;48.066;11.038;2022-12-24T05:42:59;1.33;;;1.03;;
39256;SDS011;24958;48.066;11.038;2022-12-24T05:45:25;2.57;;;1.07;;
39256;SDS011;24958;48.066;11.038;2022-12-24T05:47:51;1.43;;;1.03;;
39256;SDS011;24958;48.066;11.038;2022-12-24T05:50:18;1.33;;;1.00;;
39256;SDS011;24958;48.066;11.038;2022-12-24T05:52:44;2.37;;;1.13;;
39256;SDS011;24958;48.066;11.038;2022-12-24T05:55:10;2.33;;;1.17;;
39256;SDS011;24958;48.066;11.038;2022-12-24T05:57:37;2.43;;;1.10;;
39256;SDS011;24958;48.066;11.038;2022-12-24T06:00:04;0.90;;;0.80;;
39256;SDS011;24958;48.066;11.038;2022-12-24T06:02:30;0.80;;;0.80;;
39256;SDS011;24958;48.066;11.038;2022-12-24T06:04:56;0.87;;;0.87;;
39256;SDS011;24958;48.066;11.038;2022-12-24T06:07:22;2.10;;;0.90;;
39256;SDS011;24958;48.066;11.038;2022-12-24T06:09:49;1.10;;;0.83;;
39256;SDS011;24958;48.066;11.038;2022-12-24T06:12:15;1.13;;;1.00;;
39256;SDS011;24958;48.066;11.038;2022-12-24T06:14:41;1.03;;;0.80;;
39256;SDS011;24958;48.066;11.038;2022-12-24T06:17:07;0.90;;;0.90;;
39256;SDS011;24958;48.066;11.038;2022-12-24T06:19:33;0.83;;;0.80;;
39256;SDS011;24958;48.066;11.038;2022-12-24T06:21:59;1.40;;;0.90;;
39256;SDS011;24958;48.066;11.038;2022-12-24T06:24:25;2.40;;;0.80;;
39256;SDS011;24958;48.066;11.038;2022-12-24T06:26:51;2.10;;;1.07;;
39256;SDS011;24958;48.066;11.038;2022-12-24T06:29:17;1.43;;;0.80;;
39256;SDS011;24958;48.066;11.038;2022-12-24T06:31:43;1.17;;;0.83;;
39256;SDS011;24958;48.066;11.038;2022-12-24T06:34:10;2.20;;;0.90;;
39256;SDS011;24958;48.066;11.038;2022-12-24T06:36:36;1.13;;;1.00;;
39256;SDS011;24958;48.066;11.038;2022-12-24T06:39:02;0.80;;;0.80;;
39256;SDS011;24958;48.066;11.038;2022-12-24T06:41:28;1.17;;;1.00;;
39256;SDS011;24958;48.066;11.038;2022-12-24T06:43:54;0.90;;;0.80;;
39256;SDS011;24958;48.066;11.038;2022-12-24T06:46:20;0.97;;;0.97;;
39256;SDS011;24958;48.066;11.038;2022-12-24T06:48:47;1.83;;;1.10;;
39256;SDS011;24958;48.066;11.038;2022-12-24T06:51:14;2.07;;;1.00;;
39256;SDS011;24958;48.066;11.038;2022-12-24T06:53:40;1.43;;;0.90;;
39256;SDS011;24958;48.066;11.038;2022-12-24T06:56:07;1.00;;;0.90;;
39256;SDS011;24958;48.066;11.038;2022-12-24T06:58:34;2.17;;;1.00;;
39256;SDS011;24958;48.066;11.038;2022-12-24T07:01:01;1.73;;;0.90;;
39256;SDS011;24958;48.066;11.038;2022-12-24T07:03:28;1.50;;;1.00;;
39256;SDS011;24958;48.066;11.038;2022-12-24T07:05:54;1.50;;;1.00;;
39256;SDS011;24958;48.066;11.038;2022-12-24T07:08:20;1.40;;;1.00;;
39256;SDS011;24958;48.066;11.038;2022-12-24T07:10:49;2.83;;;1.07;;
39256;SDS011;24958;48.066;11.038;2022-12-24T07:13:16;2.37;;;1.23;;
39256;SDS011;24958;48.066;11.038;2022-12-24T07:15:42;2.83;;;1.17;;
39256;SDS011;24958;48.066;11.038;2022-12-24T07:18:08;1.20;;;0.83;;
39256;SDS011;24958;48.066;11.038;2022-12-24T07:20:34;2.03;;;1.03;;
39256;SDS011;24958;48.066;11.038;2022-12-24T07:23:00;0.90;;;0.90;;
39256;SDS011;24958;48.066;11.038;2022-12-24T07:25:26;1.70;;;0.90;;
39256;SDS011;24958;48.066;11.038;2022-12-24T07:27:53;1.33;;;0.80;;
39256;SDS011;24958;48.066;11.038;2022-12-24T07:30:19;1.23;;;0.87;;
39256;SDS011;24958;48.066;11.038;2022-12-24T07:32:45;0.93;;;0.77;;
39256;SDS011;24958;48.066;11.038;2022-12-24T07:35:11;1.00;;;0.90;;
39256;SDS011;24958;48.066;11.038;2022-12-24T07:37:37;1.37;;;0.90;;
39256;SDS011;24958;48.066;11.038;2022-12-24T07:40:03;0.80;;;0.70;;
39256;SDS011;24958;48.066;11.038;2022-12-24T07:42:32;1.20;;;0.90;;
39256;SDS011;24958;48.066;11.038;2022-12-24T07:44:58;1.50;;;1.40;;
39256;SDS011;24958;48.066;11.038;2022-12-24T07:47:24;0.83;;;0.80;;
39256;SDS011;24958;48.066;11.038;2022-12-24T07:49:50;0.70;;;0.70;;
39256;SDS011;24958;48.066;11.038;2022-12-24T07:52:16;0.80;;;0.80;;
39256;SDS011;24958;48.066;11.038;2022-12-24T07:54:42;2.03;;;0.97;;
39256;SDS011;24958;48.066;11.038;2022-12-24T07:57:09;0.80;;;0.80;;
39256;SDS011;24958;48.066;11.038;2022-12-24T07:59:35;1.20;;;1.10;;
39256;SDS011;24958;48.066;11.038;2022-12-24T08:02:02;1.00;;;0.90;;
39256;SDS011;24958;48.066;11.038;2022-12-24T08:04:32;2.10;;;0.77;;
39256;SDS011;24958;48.066;11.038;2022-12-24T08:07:00;2.50;;;0.90;;
39256;SDS011;24958;48.066;11.038;2022-12-24T08:09:27;1.83;;;0.90;;
39256;SDS011;24958;48.066;11.038;2022-12-24T08:11:53;1.17;;;0.80;;
39256;SDS011;24958;48.066;11.038;2022-12-24T08:14:19;1.10;;;0.90;;
39256;SDS011;24958;48.066;11.038;2022-12-24T08:16:45;0.70;;;0.70;;
39256;SDS011;24958;48.066;11.038;2022-12-24T08:19:11;1.33;;;0.90;;
39256;SDS011;24958;48.066;11.038;2022-12-24T08:21:37;1.47;;;0.80;;
39256;SDS011;24958;48.066;11.038;2022-12-24T08:24:06;3.20;;;2.10;;
39256;SDS011;24958;48.066;11.038;2022-12-24T08:26:36;1.23;;;1.00;;
39256;SDS011;24958;48.066;11.038;2022-12-24T08:29:02;0.80;;;0.73;;
39256;SDS011;24958;48.066;11.038;2022-12-24T08:31:29;3.10;;;1.70;;
39256;SDS011;24958;48.066;11.038;2022-12-24T08:34:00;2.03;;;1.57;;
39256;SDS011;24958;48.066;11.038;2022-12-24T08:36:26;1.33;;;0.90;;
39256;SDS011;24958;48.066;11.038;2022-12-24T08:38:52;2.93;;;1.93;;
39256;SDS011;24958;48.066;11.038;2022-12-24T08:41:18;0.93;;;0.80;;
39256;SDS011;24958;48.066;11.038;2022-12-24T08:43:44;4.50;;;2.70;;
39256;SDS011;24958;48.066;11.038;2022-12-24T08:46:11;1.40;;;0.90;;
39256;SDS011;24958;48.066;11.038;2022-12-24T08:48:37;1.93;;;1.10;;
39256;SDS011;24958;48.066;11.038;2022-12-24T08:51:07;1.10;;;0.80;;
39256;SDS011;24958;48.066;11.038;2022-12-24T08:53:33;1.30;;;0.80;;
39256;SDS011;24958;48.066;11.038;2022-12-24T08:56:00;0.90;;;0.90;;
39256;SDS011;24958;48.066;11.038;2022-12-24T08:58:27;0.80;;;0.67;;
39256;SDS011;24958;48.066;11.038;2022-12-24T09:00:54;1.70;;;1.00;;
39256;SDS011;24958;48.066;11.038;2022-12-24T09:03:20;0.77;;;0.70;;
39256;SDS011;24958;48.066;11.038;2022-12-24T09:05:46;1.37;;;0.70;;
39256;SDS011;24958;48.066;11.038;2022-12-24T09:08:12;0.67;;;0.60;;
39256;SDS011;24958;48.066;11.038;2022-12-24T09:10:38;0.73;;;0.73;;
39256;SDS011;24958;48.066;11.038;2022-12-24T09:13:04;0.70;;;0.70;;
39256;SDS011;24958;48.066;11.038;2022-12-24T09:15:30;1.13;;;0.80;;
39256;SDS011;24958;48.066;11.038;2022-12-24T09:17:57;0.80;;;0.60;;
39256;SDS011;24958;48.066;11.038;2022-12-24T09:20:23;1.70;;;0.80;;
39256;SDS011;24958;48.066;11.038;2022-12-24T09:22:49;0.70;;;0.70;;
39256;SDS011;24958;48.066;11.038;2022-12-24T09:25:15;1.37;;;0.70;;
39256;SDS011;24958;48.066;11.038;2022-12-24T09:27:41;0.70;;;0.70;;
39256;SDS011;24958;48.066;11.038;2022-12-24T09:30:08;2.03;;;0.73;;
39256;SDS011;24958;48.066;11.038;2022-12-24T09:32:34;1.63;;;0.90;;
39256;SDS011;24958;48.066;11.038;2022-12-24T09:35:00;1.00;;;0.73;;
39256;SDS011;24958;48.066;11.038;2022-12-24T09:37:27;1.60;;;0.80;;
39256;SDS011;24958;48.066;11.038;2022-12-24T09:39:53;1.33;;;0.73;;
39256;SDS011;24958;48.066;11.038;2022-12-24T09:44:52;1.53;;;0.60;;
39256;SDS011;24958;48.066;11.038;2022-12-24T09:47:27;1.03;;;0.87;;
39256;SDS011;24958;48.066;11.038;2022-12-24T09:49:54;1.37;;;0.90;;
39256;SDS011;24958;48.066;11.038;2022-12-24T09:52:34;1.53;;;0.90;;
39256;SDS011;24958;48.066;11.038;2022-12-24T09:55:06;0.90;;;0.80;;
39256;SDS011;24958;48.066;11.038;2022-12-24T09:57:37;0.67;;;0.67;;
39256;SDS011;24958;48.066;11.038;2022-12-24T10:00:16;2.30;;;0.90;;
39256;SDS011;24958;48.066;11.038;2022-12-24T10:02:44;1.87;;;0.90;;
39256;SDS011;24958;48.066;11.038;2022-12-24T10:05:13;1.77;;;0.90;;
39256;SDS011;24958;48.066;11.038;2022-12-24T10:07:47;1.90;;;0.90;;
39256;SDS011;24958;48.066;11.038;2022-12-24T10:13:07;1.63;;;0.93;;
39256;SDS011;24958;48.066;11.038;2022-12-24T10:15:38;1.17;;;0.90;;
39256;SDS011;24958;48.066;11.038;2022-12-24T10:23:42;1.10;;;0.80;;
39256;SDS011;24958;48.066;11.038;2022-12-24T10:31:05;4.30;;;1.20;;
39256;SDS011;24958;48.066;11.038;2022-12-24T10:33:42;0.97;;;0.83;;
39256;SDS011;24958;48.066;11.038;2022-12-24T10:36:19;1.30;;;0.80;;
39256;SDS011;24958;48.066;11.038;2022-12-24T10:38:47;1.13;;;0.90;;
39256;SDS011;24958;48.066;11.038;2022-12-24T10:41:13;1.97;;;1.20;;
39256;SDS011;24958;48.066;11.038;2022-12-24T10:43:40;2.80;;;0.90;;
39256;SDS011;24958;48.066;11.038;2022-12-24T10:46:22;2.53;;;1.27;;
39256;SDS011;24958;48.066;11.038;2022-12-24T10:48:53;1.57;;;1.00;;
39256;SDS011;24958;48.066;11.038;2022-12-24T10:51:40;0.87;;;0.80;;
39256;SDS011;24958;48.066;11.038;2022-12-24T10:56:38;1.63;;;1.17;;
39256;SDS011;24958;48.066;11.038;2022-12-24T10:59:04;1.27;;;0.80;;
39256;SDS011;24958;48.066;11.038;2022-12-24T11:01:44;2.08;;;0.90;;
39256;SDS011;24958;48.066;11.038;2022-12-24T11:04:20;2.78;;;1.02;;
39256;SDS011;24958;48.066;11.038;2022-12-24T11:06:50;1.58;;;0.98;;
39256;SDS011;24958;48.066;11.038;2022-12-24T11:09:28;2.35;;;1.20;;
39256;SDS011;24958;48.066;11.038;2022-12-24T11:11:55;1.15;;;1.02;;
39256;SDS011;24958;48.066;11.038;2022-12-24T11:14:21;1.25;;;1.00;;
39256;SDS011;24958;48.066;11.038;2022-12-24T11:16:48;1.90;;;0.90;;
39256;SDS011;24958;48.066;11.038;2022-12-24T11:19:15;2.85;;;1.58;;
39256;SDS011;24958;48.066;11.038;2022-12-24T11:21:43;1.08;;;0.90;;
39256;SDS011;24958;48.066;11.038;2022-12-24T11:26:39;2.05;;;1.05;;
39256;SDS011;24958;48.066;11.038;2022-12-24T11:31:38;1.10;;;0.90;;
39256;SDS011;24958;48.066;11.038;2022-12-24T11:36:49;2.67;;;1.00;;
39256;SDS011;24958;48.066;11.038;2022-12-24T11:39:17;3.20;;;1.00;;
39256;SDS011;24958;48.066;11.038;2022-12-24T11:41:44;2.17;;;0.90;;
39256;SDS011;24958;48.066;11.038;2022-12-24T11:44:10;1.10;;;1.00;;
39256;SDS011;24958;48.066;11.038;2022-12-24T11:46:37;1.13;;;0.85;;
39256;SDS011;24958;48.066;11.038;2022-12-24T11:51:30;0.90;;;0.80;;
39256;SDS011;24958;48.066;11.038;2022-12-24T11:56:39;1.27;;;0.80;;
39256;SDS011;24958;48.066;11.038;2022-12-24T12:02:24;1.95;;;1.02;;
39256;SDS011;24958;48.066;11.038;2022-12-24T12:04:32;1.80;;;0.90;;
39256;SDS011;24958;48.066;11.038;2022-12-24T12:07:05;1.10;;;1.00;;
39256;SDS011;24958;48.066;11.038;2022-12-24T12:09:55;0.93;;;0.82;;
39256;SDS011;24958;48.066;11.038;2022-12-24T12:12:26;0.95;;;0.85;;
39256;SDS011;24958;48.066;11.038;2022-12-24T12:14:54;1.05;;;0.80;;
39256;SDS011;24958;48.066;11.038;2022-12-24T12:19:50;1.02;;;0.85;;
39256;SDS011;24958;48.066;11.038;2022-12-24T12:22:30;1.23;;;0.90;;
39256;SDS011;24958;48.066;11.038;2022-12-24T12:24:59;1.38;;;0.82;;
39256;SDS011;24958;48.066;11.038;2022-12-24T12:27:45;0.80;;;0.80;;
39256;SDS011;24958;48.066;11.038;2022-12-24T12:30:16;0.80;;;0.70;;
39256;SDS011;24958;48.066;11.038;2022-12-24T12:35:34;1.75;;;0.80;;
39256;SDS011;24958;48.066;11.038;2022-12-24T12:38:08;1.90;;;0.70;;
39256;SDS011;24958;48.066;11.038;2022-12-24T12:43:29;1.42;;;0.73;;
39256;SDS011;24958;48.066;11.038;2022-12-24T12:45:57;2.05;;;0.82;;
39256;SDS011;24958;48.066;11.038;2022-12-24T12:48:33;1.95;;;0.80;;
39256;SDS011;24958;48.066;11.038;2022-12-24T12:53:40;1.10;;;1.00;;
39256;SDS011;24958;48.066;11.038;2022-12-24T12:58:36;0.70;;;0.70;;
39256;SDS011;24958;48.066;11.038;2022-12-24T13:01:13;0.80;;;0.80;;
39256;SDS011;24958;48.066;11.038;2022-12-24T13:06:11;1.57;;;0.90;;
39256;SDS011;24958;48.066;11.038;2022-12-24T13:08:46;2.43;;;0.90;;
39256;SDS011;24958;48.066;11.038;2022-12-24T13:19:08;1.50;;;0.80;;
39256;SDS011;24958;48.066;11.038;2022-12-24T13:21:41;1.87;;;0.90;;
39256;SDS011;24958;48.066;11.038;2022-12-24T13:24:18;2.27;;;1.00;;
39256;SDS011;24958;48.066;11.038;2022-12-24T13:26:59;1.47;;;1.00;;
39256;SDS011;24958;48.066;11.038;2022-12-24T13:32:13;2.37;;;0.90;;
39256;SDS011;24958;48.066;11.038;2022-12-24T13:34:41;1.77;;;0.80;;
39256;SDS011;24958;48.066;11.038;2022-12-24T13:37:22;1.23;;;0.80;;
39256;SDS011;24958;48.066;11.038;2022-12-24T13:48:13;1.77;;;1.00;;
39256;SDS011;24958;48.066;11.038;2022-12-24T13:50:43;0.83;;;0.83;;
39256;SDS011;24958;48.066;11.038;2022-12-24T13:58:22;1.40;;;1.20;;
39256;SDS011;24958;48.066;11.038;2022-12-24T14:03:31;1.80;;;1.27;;
39256;SDS011;24958;48.066;11.038;2022-12-24T14:06:04;1.23;;;1.10;;
39256;SDS011;24958;48.066;11.038;2022-12-24T14:08:42;2.40;;;1.00;;
39256;SDS011;24958;48.066;11.038;2022-12-24T14:16:14;1.67;;;0.97;;
39256;SDS011;24958;48.066;11.038;2022-12-24T14:18:46;1.53;;;0.80;;
39256;SDS011;24958;48.066;11.038;2022-12-24T14:21:15;1.97;;;0.90;;
39256;SDS011;24958;48.066;11.038;2022-12-24T14:23:50;2.40;;;1.00;;
39256;SDS011;24958;48.066;11.038;2022-12-24T14:26:19;0.90;;;0.90;;
39256;SDS011;24958;48.066;11.038;2022-12-24T14:28:47;0.87;;;0.80;;
39256;SDS011;24958;48.066;11.038;2022-12-24T14:31:16;2.23;;;1.00;;
39256;SDS011;24958;48.066;11.038;2022-12-24T14:33:43;1.40;;;0.90;;
39256;SDS011;24958;48.066;11.038;2022-12-24T14:36:09;1.77;;;0.90;;
39256;SDS011;24958;48.066;11.038;2022-12-24T14:38:36;1.27;;;1.00;;
39256;SDS011;24958;48.066;11.038;2022-12-24T14:41:17;2.23;;;1.33;;
39256;SDS011;24958;48.066;11.038;2022-12-24T14:44:07;1.37;;;1.10;;
39256;SDS011;24958;48.066;11.038;2022-12-24T14:52:15;1.37;;;1.27;;
39256;SDS011;24958;48.066;11.038;2022-12-24T15:00:15;2.40;;;1.10;;
39256;SDS011;24958;48.066;11.038;2022-12-24T15:02:49;1.40;;;1.10;;
39256;SDS011;24958;48.066;11.038;2022-12-24T15:10:26;0.90;;;0.70;;
39256;SDS011;24958;48.066;11.038;2022-12-24T15:12:53;1.20;;;0.90;;
39256;SDS011;24958;48.066;11.038;2022-12-24T15:15:20;1.90;;;0.90;;
39256;SDS011;24958;48.066;11.038;2022-12-24T15:17:46;1.23;;;0.90;;
39256;SDS011;24958;48.066;11.038;2022-12-24T15:20:13;2.13;;;1.20;;
39256;SDS011;24958;48.066;11.038;2022-12-24T15:22:41;1.10;;;1.00;;
39256;SDS011;24958;48.066;11.038;2022-12-24T15:25:18;1.20;;;1.00;;
39256;SDS011;24958;48.066;11.038;2022-12-24T15:27:44;1.33;;;1.07;;
39256;SDS011;24958;48.066;11.038;2022-12-24T15:30:16;1.17;;;0.87;;
39256;SDS011;24958;48.066;11.038;2022-12-24T15:32:43;1.47;;;1.20;;
39256;SDS011;24958;48.066;11.038;2022-12-24T15:37:56;1.17;;;1.00;;
39256;SDS011;24958;48.066;11.038;2022-12-24T15:40:22;0.90;;;0.80;;
39256;SDS011;24958;48.066;11.038;2022-12-24T15:42:49;1.10;;;1.00;;
39256;SDS011;24958;48.066;11.038;2022-12-24T15:45:20;1.33;;;0.90;;
39256;SDS011;24958;48.066;11.038;2022-12-24T15:47:53;1.60;;;1.10;;
39256;SDS011;24958;48.066;11.038;2022-12-24T15:50:25;1.60;;;1.07;;
39256;SDS011;24958;48.066;11.038;2022-12-24T15:52:52;1.83;;;0.97;;
39256;SDS011;24958;48.066;11.038;2022-12-24T15:55:26;1.30;;;0.90;;
39256;SDS011;24958;48.066;11.038;2022-12-24T15:57:52;1.60;;;1.00;;
39256;SDS011;24958;48.066;11.038;2022-12-24T16:00:22;2.33;;;1.00;;
39256;SDS011;24958;48.066;11.038;2022-12-24T16:02:48;1.40;;;1.20;;
39256;SDS011;24958;48.066;11.038;2022-12-24T16:08:00;2.23;;;0.90;;
39256;SDS011;24958;48.066;11.038;2022-12-24T16:10:37;1.40;;;1.00;;
39256;SDS011;24958;48.066;11.038;2022-12-24T16:13:11;1.00;;;0.87;;
39256;SDS011;24958;48.066;11.038;2022-12-24T16:15:57;1.33;;;0.87;;
39256;SDS011;24958;48.066;11.038;2022-12-24T16:18:25;1.17;;;1.07;;
39256;SDS011;24958;48.066;11.038;2022-12-24T16:20:53;1.57;;;1.10;;
39256;SDS011;24958;48.066;11.038;2022-12-24T16:23:21;1.80;;;1.50;;
39256;SDS011;24958;48.066;11.038;2022-12-24T16:25:48;1.40;;;1.07;;
39256;SDS011;24958;48.066;11.038;2022-12-24T16:28:14;2.10;;;1.90;;
39256;SDS011;24958;48.066;11.038;2022-12-24T16:30:42;2.30;;;1.90;;
39256;SDS011;24958;48.066;11.038;2022-12-24T16:33:13;1.20;;;1.10;;
39256;SDS011;24958;48.066;11.038;2022-12-24T16:35:39;3.77;;;2.07;;
39256;SDS011;24958;48.066;11.038;2022-12-24T16:38:10;1.63;;;1.40;;
39256;SDS011;24958;48.066;11.038;2022-12-24T16:40:37;2.03;;;1.73;;
39256;SDS011;24958;48.066;11.038;2022-12-24T16:43:03;2.70;;;1.97;;
39256;SDS011;24958;48.066;11.038;2022-12-24T16:45:48;2.47;;;2.27;;
39256;SDS011;24958;48.066;11.038;2022-12-24T16:48:22;5.70;;;4.57;;
39256;SDS011;24958;48.066;11.038;2022-12-24T16:50:49;10.07;;;9.00;;
39256;SDS011;24958;48.066;11.038;2022-12-24T16:53:16;5.10;;;4.60;;